Trouper — CQBP — position and weather

sailwx.info

Track history (hours):
 
Tides and Currents Weather Stations Pressure Air Temp Water Temp Dewpoint Dewpoint Depression Visibility Wind Speed Wind Dir Waves Ship Positions

Trouper

Last reported at 2017-Dec-14 18:27 UTC. Time now 2017-Dec-15 12:01 UTC.
Position N 32°53' E 034°55'.

Length 134 m; draft 7.6 m.

Type: Ship (hazmat cat A). MMSI: 255805844.

Date/timePositionNaut miles runAvg speedWind from/ knotsBaromVisibWave heightAir tempDewpointWater temp
2017-Dec-14 18:27N 32°53' E 034°55'512.1
2017-Dec-14 18:00N 32°51' E 034°49'815.0
2017-Dec-14 17:30N 32°44' E 034°46'815.0
2017-Dec-14 17:00N 32°36' E 034°44'714.9
2017-Dec-14 16:30N 32°29' E 034°41'714.6
2017-Dec-14 16:00N 32°22' E 034°39'1514.7
2017-Dec-14 15:00N 32°08' E 034°34'17 0.7
2017-Dec-13 15:28N 31°52' E 034°38'45611.9
2017-Dec-12 01:04N 34°26' E 026°05'114.1
2017-Dec-12 01:00N 34°26' E 026°04'14514.6
2017-Dec-11 15:02N 35°15' E 023°17'37614.5
2017-Dec-10 13:07N 37°43' E 016°08'114.3
2017-Dec-10 13:00N 37°44' E 016°06'814.4
2017-Dec-10 12:29N 37°47' E 015°58'714.4
2017-Dec-10 12:00N 37°50' E 015°50'714.6
2017-Dec-10 11:30N 37°53' E 015°41'713.2
2017-Dec-10 11:00N 37°57' E 015°35'714.2
2017-Dec-10 10:29N 38°05' E 015°34'714.7
2017-Dec-10 10:00N 38°12' E 015°36'713.0
2017-Dec-10 09:29N 38°17' E 015°41'715.2
2017-Dec-10 09:00N 38°23' E 015°36'815.5
2017-Dec-10 08:29N 38°30' E 015°31'715.2
2017-Dec-10 08:00N 38°37' E 015°27'814.9
2017-Dec-10 07:29N 38°44' E 015°23'13611.7
2017-Dec-09 19:51N 40°50' E 014°17'0 0.0
2017-Dec-09 19:21N 40°50' E 014°17'0 0.0
2017-Dec-09 18:51N 40°50' E 014°17'0 0.0
2017-Dec-09 17:51N 40°50' E 014°17'0 0.0
2017-Dec-09 17:21N 40°50' E 014°17'0 0.0
2017-Dec-09 16:51N 40°50' E 014°17'0 0.0
2017-Dec-09 16:09N 40°50' E 014°17'0 0.1
2017-Dec-09 15:54N 40°50' E 014°17'0 0.0
2017-Dec-09 13:42N 40°50' E 014°17'0 0.0
2017-Dec-09 09:45N 40°50' E 014°17'0 0.0
2017-Dec-09 09:12N 40°50' E 014°17'0 0.0
2017-Dec-09 08:55N 40°50' E 014°17'1 1.5
2017-Dec-09 08:28N 40°50' E 014°17'2 4.3
2017-Dec-09 08:00N 40°48' E 014°18'2 4.0
2017-Dec-09 07:31N 40°46' E 014°19'0 0.1
2017-Dec-09 07:00N 40°46' E 014°19'0 0.9
2017-Dec-09 06:31N 40°47' E 014°19'19411.9
2017-Dec-08 14:08N 42°08' E 010°24'614.3
2017-Dec-08 13:45N 42°11' E 010°17'5513.5
2017-Dec-08 09:39N 42°57' E 009°37'214.1
2017-Dec-08 09:30N 42°59' E 009°36'714.7
2017-Dec-08 09:00N 43°07' E 009°34'815.1
2017-Dec-08 08:30N 43°14' E 009°31'714.4
2017-Dec-08 08:00N 43°21' E 009°29'714.4
2017-Dec-08 07:30N 43°28' E 009°26'814.5
2017-Dec-08 06:56N 43°36' E 009°22'714.4
2017-Dec-08 06:29N 43°42' E 009°19'714.2
2017-Dec-08 05:59N 43°48' E 009°16'714.2
2017-Dec-08 05:28N 43°55' E 009°12'714.5
2017-Dec-08 05:00N 44°02' E 009°10'714.2
2017-Dec-08 04:30N 44°08' E 009°07'714.3
2017-Dec-08 04:00N 44°15' E 009°02'713.7
2017-Dec-08 03:30N 44°21' E 008°58'4 8.6
2017-Dec-08 03:01N 44°24' E 008°54'0 0.2
2017-Dec-08 02:28N 44°24' E 008°54'0 0.0
2017-Dec-08 01:58N 44°24' E 008°54'0 0.0
2017-Dec-08 01:28N 44°24' E 008°54'0 0.0
2017-Dec-08 00:58N 44°24' E 008°54'0 0.0
2017-Dec-08 00:28N 44°24' E 008°54'0 0.0
2017-Dec-07 23:58N 44°24' E 008°54'0 0.0
2017-Dec-07 23:31N 44°24' E 008°54'0 0.0
2017-Dec-07 22:57N 44°24' E 008°54'0 0.0
2017-Dec-07 22:30N 44°24' E 008°54'0 0.0
2017-Dec-07 21:59N 44°24' E 008°54'0 0.0
2017-Dec-07 21:29N 44°24' E 008°54'0 0.0
2017-Dec-07 20:59N 44°24' E 008°54'0 0.0
2017-Dec-07 20:29N 44°24' E 008°54'0 0.0
2017-Dec-07 19:59N 44°24' E 008°54'0 0.0
2017-Dec-07 19:26N 44°24' E 008°54'0 0.0
2017-Dec-07 18:56N 44°24' E 008°54'0 0.0
2017-Dec-07 18:26N 44°24' E 008°54'0 0.0
2017-Dec-07 17:56N 44°24' E 008°54'0 0.0
2017-Dec-07 17:26N 44°24' E 008°54'0 0.0
2017-Dec-07 17:00N 44°24' E 008°54'0 0.0
2017-Dec-07 16:30N 44°24' E 008°54'0 0.1
2017-Dec-07 16:00N 44°24' E 008°54'0 0.1
2017-Dec-07 15:30N 44°24' E 008°54'0 0.0
2017-Dec-07 14:56N 44°24' E 008°54'0 0.0
2017-Dec-07 14:29N 44°24' E 008°54'0 0.0
2017-Dec-07 14:01N 44°24' E 008°54'2 3.3
2017-Dec-07 13:31N 44°24' E 008°56'2 4.9
2017-Dec-07 13:00N 44°22' E 008°59'2 3.6
2017-Dec-07 12:30N 44°21' E 009°01'0 0.3
2017-Dec-07 11:57N 44°22' E 009°01'0 0.0
2017-Dec-07 11:30N 44°22' E 009°01'0 0.0
2017-Dec-07 10:57N 44°22' E 009°01'0 0.0
2017-Dec-07 10:27N 44°22' E 009°01'0 0.0
2017-Dec-07 09:57N 44°22' E 009°01'0 0.0
2017-Dec-07 09:27N 44°22' E 009°01'0 0.0
2017-Dec-07 08:57N 44°22' E 009°01'0 0.1
2017-Dec-07 08:27N 44°22' E 009°01'0 0.0
2017-Dec-07 08:00N 44°22' E 009°01'1 1.6
2017-Dec-07 07:30N 44°21' E 009°00'815.5
2017-Dec-07 07:01N 44°16' E 008°52'714.0
2017-Dec-07 06:30N 44°11' E 008°46'714.0
2017-Dec-07 06:01N 44°06' E 008°38'714.2
2017-Dec-07 05:30N 44°01' E 008°31'713.7
2017-Dec-07 05:00N 43°57' E 008°24'4513.4
2017-Dec-07 01:38N 43°29' E 007°35'313.9
2017-Dec-07 01:27N 43°27' E 007°32'614.2
2017-Dec-07 01:00N 43°23' E 007°25'1114.3
2017-Dec-07 00:13N 43°16' E 007°13'313.9
2017-Dec-07 00:01N 43°15' E 007°10'714.0
2017-Dec-06 23:30N 43°10' E 007°02'  
Track history (hours):
 
Tides and Currents Weather Stations Pressure Air Temp Water Temp Dewpoint Dewpoint Depression Visibility Wind Speed Wind Dir Waves Ship Positions

Trouper

Last reported at 2017-Dec-14 18:27 UTC. Time now 2017-Dec-15 12:01 UTC.
Position N 32°53' E 034°55'.

Length 134 m; draft 7.6 m.

Type: Ship (hazmat cat A). MMSI: 255805844.

Date/timePositionNaut miles runAvg speedWind from/ knotsBaromVisibWave heightAir tempDewpointWater temp
2017-Dec-14 18:27N 32°53' E 034°55'512.1
2017-Dec-14 18:00N 32°51' E 034°49'815.0
2017-Dec-14 17:30N 32°44' E 034°46'815.0
2017-Dec-14 17:00N 32°36' E 034°44'714.9
2017-Dec-14 16:30N 32°29' E 034°41'714.6
2017-Dec-14 16:00N 32°22' E 034°39'1514.7
2017-Dec-14 15:00N 32°08' E 034°34'17 0.7
2017-Dec-13 15:28N 31°52' E 034°38'45611.9
2017-Dec-12 01:04N 34°26' E 026°05'114.1
2017-Dec-12 01:00N 34°26' E 026°04'14514.6
2017-Dec-11 15:02N 35°15' E 023°17'37614.5
2017-Dec-10 13:07N 37°43' E 016°08'114.3
2017-Dec-10 13:00N 37°44' E 016°06'814.4
2017-Dec-10 12:29N 37°47' E 015°58'714.4
2017-Dec-10 12:00N 37°50' E 015°50'714.6
2017-Dec-10 11:30N 37°53' E 015°41'713.2
2017-Dec-10 11:00N 37°57' E 015°35'714.2
2017-Dec-10 10:29N 38°05' E 015°34'714.7
2017-Dec-10 10:00N 38°12' E 015°36'713.0
2017-Dec-10 09:29N 38°17' E 015°41'715.2
2017-Dec-10 09:00N 38°23' E 015°36'815.5
2017-Dec-10 08:29N 38°30' E 015°31'715.2
2017-Dec-10 08:00N 38°37' E 015°27'814.9
2017-Dec-10 07:29N 38°44' E 015°23'13611.7
2017-Dec-09 19:51N 40°50' E 014°17'0 0.0
2017-Dec-09 19:21N 40°50' E 014°17'0 0.0
2017-Dec-09 18:51N 40°50' E 014°17'0 0.0
2017-Dec-09 17:51N 40°50' E 014°17'0 0.0
2017-Dec-09 17:21N 40°50' E 014°17'0 0.0
2017-Dec-09 16:51N 40°50' E 014°17'0 0.0
2017-Dec-09 16:09N 40°50' E 014°17'0 0.1
2017-Dec-09 15:54N 40°50' E 014°17'0 0.0
2017-Dec-09 13:42N 40°50' E 014°17'0 0.0
2017-Dec-09 09:45N 40°50' E 014°17'0 0.0
2017-Dec-09 09:12N 40°50' E 014°17'0 0.0
2017-Dec-09 08:55N 40°50' E 014°17'1 1.5
2017-Dec-09 08:28N 40°50' E 014°17'2 4.3
2017-Dec-09 08:00N 40°48' E 014°18'2 4.0
2017-Dec-09 07:31N 40°46' E 014°19'0 0.1
2017-Dec-09 07:00N 40°46' E 014°19'0 0.9
2017-Dec-09 06:31N 40°47' E 014°19'19411.9
2017-Dec-08 14:08N 42°08' E 010°24'614.3
2017-Dec-08 13:45N 42°11' E 010°17'5513.5
2017-Dec-08 09:39N 42°57' E 009°37'214.1
2017-Dec-08 09:30N 42°59' E 009°36'714.7
2017-Dec-08 09:00N 43°07' E 009°34'815.1
2017-Dec-08 08:30N 43°14' E 009°31'714.4
2017-Dec-08 08:00N 43°21' E 009°29'714.4
2017-Dec-08 07:30N 43°28' E 009°26'814.5
2017-Dec-08 06:56N 43°36' E 009°22'714.4
2017-Dec-08 06:29N 43°42' E 009°19'714.2
2017-Dec-08 05:59N 43°48' E 009°16'714.2
2017-Dec-08 05:28N 43°55' E 009°12'714.5
2017-Dec-08 05:00N 44°02' E 009°10'714.2
2017-Dec-08 04:30N 44°08' E 009°07'714.3
2017-Dec-08 04:00N 44°15' E 009°02'713.7
2017-Dec-08 03:30N 44°21' E 008°58'4 8.6
2017-Dec-08 03:01N 44°24' E 008°54'0 0.2
2017-Dec-08 02:28N 44°24' E 008°54'0 0.0
2017-Dec-08 01:58N 44°24' E 008°54'0 0.0
2017-Dec-08 01:28N 44°24' E 008°54'0 0.0
2017-Dec-08 00:58N 44°24' E 008°54'0 0.0
2017-Dec-08 00:28N 44°24' E 008°54'0 0.0
2017-Dec-07 23:58N 44°24' E 008°54'0 0.0
2017-Dec-07 23:31N 44°24' E 008°54'0 0.0
2017-Dec-07 22:57N 44°24' E 008°54'0 0.0
2017-Dec-07 22:30N 44°24' E 008°54'0 0.0
2017-Dec-07 21:59N 44°24' E 008°54'0 0.0
2017-Dec-07 21:29N 44°24' E 008°54'0 0.0
2017-Dec-07 20:59N 44°24' E 008°54'0 0.0
2017-Dec-07 20:29N 44°24' E 008°54'0 0.0
2017-Dec-07 19:59N 44°24' E 008°54'0 0.0
2017-Dec-07 19:26N 44°24' E 008°54'0 0.0
2017-Dec-07 18:56N 44°24' E 008°54'0 0.0
2017-Dec-07 18:26N 44°24' E 008°54'0 0.0
2017-Dec-07 17:56N 44°24' E 008°54'0 0.0
2017-Dec-07 17:26N 44°24' E 008°54'0 0.0
2017-Dec-07 17:00N 44°24' E 008°54'0 0.0
2017-Dec-07 16:30N 44°24' E 008°54'0 0.1
2017-Dec-07 16:00N 44°24' E 008°54'0 0.1
2017-Dec-07 15:30N 44°24' E 008°54'0 0.0
2017-Dec-07 14:56N 44°24' E 008°54'0 0.0
2017-Dec-07 14:29N 44°24' E 008°54'0 0.0
2017-Dec-07 14:01N 44°24' E 008°54'2 3.3
2017-Dec-07 13:31N 44°24' E 008°56'2 4.9
2017-Dec-07 13:00N 44°22' E 008°59'2 3.6
2017-Dec-07 12:30N 44°21' E 009°01'0 0.3
2017-Dec-07 11:57N 44°22' E 009°01'0 0.0
2017-Dec-07 11:30N 44°22' E 009°01'0 0.0
2017-Dec-07 10:57N 44°22' E 009°01'0 0.0
2017-Dec-07 10:27N 44°22' E 009°01'0 0.0
2017-Dec-07 09:57N 44°22' E 009°01'0 0.0
2017-Dec-07 09:27N 44°22' E 009°01'0 0.0
2017-Dec-07 08:57N 44°22' E 009°01'0 0.1
2017-Dec-07 08:27N 44°22' E 009°01'0 0.0
2017-Dec-07 08:00N 44°22' E 009°01'1 1.6
2017-Dec-07 07:30N 44°21' E 009°00'815.5
2017-Dec-07 07:01N 44°16' E 008°52'714.0
2017-Dec-07 06:30N 44°11' E 008°46'714.0
2017-Dec-07 06:01N 44°06' E 008°38'714.2
2017-Dec-07 05:30N 44°01' E 008°31'713.7
2017-Dec-07 05:00N 43°57' E 008°24'4513.4
2017-Dec-07 01:38N 43°29' E 007°35'313.9
2017-Dec-07 01:27N 43°27' E 007°32'614.2
2017-Dec-07 01:00N 43°23' E 007°25'1114.3
2017-Dec-07 00:13N 43°16' E 007°13'313.9
2017-Dec-07 00:01N 43°15' E 007°10'714.0
2017-Dec-06 23:30N 43°10' E 007°02'  

Dump ship's entire track history